Terminal Aerodrome Forecast
Issued by NWS Louisville, KY

Home | Current Version | Previous Version | Text Only | Print | Product List | Glossary On
Versions: 1 2 3 4 5 6 7 8 9 10 11 12 13 14 15
170
FTUS43 KLMK 230520
TAFBWG
TAF
KBWG 230520Z 2306/2406 19011KT P6SM SCT017 BKN022
     FM230900 20013KT P6SM SCT025 BKN040
     FM231300 19012KT P6SM VCTS SCT027CB BKN040
     FM231700 19012KT P6SM -SHRA VCTS SCT030CB OVC035
     FM231900 19011KT 4SM SHRA VCTS BKN025CB OVC040
     FM240200 27010KT P6SM BKN025=

USA.gov is the U.S. government's official web portal to all federal, state and local government web resources and services.